Time,TemperatureF,DewpointF,PressureIn,WindDirection,WindDirectionDegrees,WindSpeedMPH,WindSpeedGustMPH,Humidity,HourlyPrecipIn,Conditions,Clouds,dailyrainin,SolarRadiationWatts/m^2,SoftwareType,DateUTC
2013-03-03 00:21:00,24.0,23.0,-100.00,NNW,336,2.0,7.0,94,0.00,,,0.04,0.000000,,2013-03-03 09:21:00,
2013-03-03 00:32:00,24.0,23.0,-100.00,NNW,336,2.0,7.0,94,0.00,,,0.04,0.000000,,2013-03-03 09:32:00,
2013-03-03 00:41:00,24.0,23.0,-100.00,NNW,336,2.0,7.0,94,0.00,,,0.04,0.000000,,2013-03-03 09:41:00,
2013-03-03 00:51:00,24.0,23.0,-100.00,NNW,336,2.0,7.0,94,0.00,,,0.04,0.000000,,2013-03-03 09:51:00,
2013-03-03 01:11:00,26.0,22.0,-100.00,NNW,331,3.0,8.0,85,0.00,,,0.04,0.000000,,2013-03-03 10:11:00,
2013-03-03 01:21:00,26.0,22.0,-100.00,NNW,331,3.0,8.0,85,0.00,,,0.04,0.000000,,2013-03-03 10:21:00,
2013-03-03 01:32:00,26.0,22.0,-100.00,NNW,331,3.0,8.0,85,0.00,,,0.04,0.000000,,2013-03-03 10:32:00,
2013-03-03 01:42:00,26.0,22.0,-100.00,NNW,331,3.0,8.0,85,0.00,,,0.04,0.000000,,2013-03-03 10:42:00,
2013-03-03 01:51:00,26.0,22.0,-100.00,NNW,331,3.0,8.0,85,0.00,,,0.04,0.000000,,2013-03-03 10:51:00,
2013-03-03 02:11:00,26.0,22.0,-100.00,North,9,2.0,11.0,86,0.00,,,0.04,0.000000,,2013-03-03 11:11:00,
2013-03-03 02:21:00,26.0,22.0,-100.00,North,9,2.0,11.0,86,0.00,,,0.04,0.000000,,2013-03-03 11:21:00,
2013-03-03 02:31:00,26.0,22.0,-100.00,North,9,2.0,11.0,86,0.00,,,0.04,0.000000,,2013-03-03 11:31:00,
2013-03-03 02:41:00,26.0,22.0,-100.00,North,9,2.0,11.0,86,0.00,,,0.04,0.000000,,2013-03-03 11:41:00,
2013-03-03 02:52:00,26.0,22.0,-100.00,North,9,2.0,11.0,86,0.00,,,0.04,0.000000,,2013-03-03 11:52:00,
2013-03-03 03:11:00,26.0,20.0,-100.00,NNW,335,2.0,9.0,77,0.00,,,0.04,0.000000,,2013-03-03 12:11:00,
2013-03-03 03:21:00,26.0,20.0,-100.00,NNW,335,2.0,9.0,77,0.00,,,0.04,0.000000,,2013-03-03 12:21:00,
2013-03-03 03:32:00,26.0,20.0,-100.00,NNW,335,2.0,9.0,77,0.00,,,0.04,0.000000,,2013-03-03 12:32:00,
2013-03-03 03:42:00,26.0,20.0,-100.00,NNW,335,2.0,9.0,77,0.00,,,0.04,0.000000,,2013-03-03 12:42:00,
2013-03-03 03:52:00,26.0,20.0,-100.00,NNW,335,2.0,9.0,77,0.00,,,0.04,0.000000,,2013-03-03 12:52:00,
2013-03-03 04:11:00,31.0,24.0,-100.00,NE,34,3.0,9.0,74,0.00,,,0.04,0.000000,,2013-03-03 13:11:00,
2013-03-03 04:21:00,31.0,24.0,-100.00,NE,34,3.0,9.0,74,0.00,,,0.04,0.000000,,2013-03-03 13:21:00,
2013-03-03 04:32:00,31.0,24.0,-100.00,NE,34,3.0,9.0,74,0.00,,,0.04,0.000000,,2013-03-03 13:32:00,
2013-03-03 04:41:00,31.0,24.0,-100.00,NE,34,3.0,9.0,74,0.00,,,0.04,0.000000,,2013-03-03 13:41:00,
2013-03-03 04:51:00,31.0,24.0,-100.00,NE,34,3.0,9.0,74,0.00,,,0.04,0.000000,,2013-03-03 13:51:00,
2013-03-03 05:21:00,26.0,20.0,-100.00,NNW,332,3.0,7.0,78,0.00,,,0.04,0.000000,,2013-03-03 14:21:00,
2013-03-03 05:32:00,26.0,20.0,-100.00,NNW,332,3.0,7.0,78,0.00,,,0.04,0.000000,,2013-03-03 14:32:00,
2013-03-03 05:42:00,26.0,20.0,-100.00,NNW,332,3.0,7.0,78,0.00,,,0.04,0.000000,,2013-03-03 14:42:00,
2013-03-03 05:52:00,26.0,20.0,-100.00,NNW,332,3.0,7.0,78,0.00,,,0.04,0.000000,,2013-03-03 14:52:00,
2013-03-03 06:11:00,25.0,21.0,-100.00,NNW,335,3.0,8.0,84,0.00,,,0.04,0.000000,,2013-03-03 15:11:00,
2013-03-03 06:22:00,25.0,21.0,-100.00,NNW,335,3.0,8.0,84,0.00,,,0.04,0.000000,,2013-03-03 15:22:00,
2013-03-03 06:32:00,25.0,21.0,-100.00,NNW,335,3.0,8.0,84,0.00,,,0.04,0.000000,,2013-03-03 15:32:00,
2013-03-03 06:42:00,25.0,21.0,-100.00,NNW,335,3.0,8.0,84,0.00,,,0.04,0.000000,,2013-03-03 15:42:00,
2013-03-03 06:51:00,25.0,21.0,-100.00,NNW,335,3.0,8.0,84,0.00,,,0.04,0.000000,,2013-03-03 15:51:00,
2013-03-03 07:12:00,23.0,20.0,-100.00,NNW,338,3.0,8.0,89,0.00,,,0.04,0.000000,,2013-03-03 16:12:00,
2013-03-03 07:21:00,23.0,20.0,-100.00,NNW,338,3.0,8.0,89,0.00,,,0.04,0.000000,,2013-03-03 16:21:00,
2013-03-03 07:31:00,23.0,20.0,-100.00,NNW,338,3.0,8.0,89,0.00,,,0.04,0.000000,,2013-03-03 16:31:00,
2013-03-03 07:41:00,23.0,20.0,-100.00,NNW,338,3.0,8.0,89,0.00,,,0.04,0.000000,,2013-03-03 16:41:00,
2013-03-03 07:51:00,23.0,20.0,-100.00,NNW,338,3.0,8.0,89,0.00,,,0.04,0.000000,,2013-03-03 16:51:00,
2013-03-03 08:11:00,24.0,22.0,-100.00,North,357,4.0,9.0,90,0.00,,,0.04,0.000000,,2013-03-03 17:11:00,
2013-03-03 08:22:00,24.0,22.0,-100.00,North,357,4.0,9.0,90,0.00,,,0.04,0.000000,,2013-03-03 17:22:00,
2013-03-03 08:32:00,24.0,22.0,-100.00,North,357,4.0,9.0,90,0.00,,,0.04,0.000000,,2013-03-03 17:32:00,
2013-03-03 08:42:00,24.0,22.0,-100.00,North,357,4.0,9.0,90,0.00,,,0.04,0.000000,,2013-03-03 17:42:00,
2013-03-03 08:52:00,24.0,22.0,-100.00,North,357,4.0,9.0,90,0.00,,,0.04,0.000000,,2013-03-03 17:52:00,
2013-03-03 09:21:00,24.0,21.0,-100.00,NNW,344,4.0,12.0,89,0.00,,,0.04,21.000000,,2013-03-03 18:21:00,
2013-03-03 09:31:00,24.0,21.0,-100.00,NNW,344,4.0,12.0,89,0.00,,,0.04,21.000000,,2013-03-03 18:31:00,
2013-03-03 09:42:00,24.0,21.0,-100.00,NNW,344,4.0,12.0,89,0.00,,,0.04,21.000000,,2013-03-03 18:42:00,
2013-03-03 09:52:00,24.0,21.0,-100.00,NNW,344,4.0,12.0,89,0.00,,,0.04,21.000000,,2013-03-03 18:52:00,
2013-03-03 10:11:00,26.0,22.0,-100.00,NNW,347,4.0,9.0,85,0.00,,,0.04,67.000000,,2013-03-03 19:11:00,
2013-03-03 10:21:00,26.0,22.0,-100.00,NNW,347,4.0,9.0,85,0.00,,,0.04,67.000000,,2013-03-03 19:21:00,
2013-03-03 10:31:00,26.0,22.0,-100.00,NNW,347,4.0,9.0,85,0.00,,,0.04,67.000000,,2013-03-03 19:31:00,
2013-03-03 10:42:00,26.0,22.0,-100.00,NNW,347,4.0,9.0,85,0.00,,,0.04,67.000000,,2013-03-03 19:42:00,
2013-03-03 10:51:00,26.0,22.0,-100.00,NNW,347,4.0,9.0,85,0.00,,,0.04,67.000000,,2013-03-03 19:51:00,
2013-03-03 11:11:00,28.0,23.0,-100.00,NNW,347,4.0,9.0,80,0.00,,,0.04,89.000000,,2013-03-03 20:11:00,
2013-03-03 11:21:00,28.0,23.0,-100.00,NNW,347,4.0,9.0,80,0.00,,,0.04,89.000000,,2013-03-03 20:21:00,
2013-03-03 11:32:00,28.0,23.0,-100.00,NNW,347,4.0,9.0,80,0.00,,,0.04,89.000000,,2013-03-03 20:32:00,
2013-03-03 11:42:00,28.0,23.0,-100.00,NNW,347,4.0,9.0,80,0.00,,,0.04,89.000000,,2013-03-03 20:42:00,
2013-03-03 11:52:00,28.0,23.0,-100.00,NNW,347,4.0,9.0,80,0.00,,,0.04,89.000000,,2013-03-03 20:52:00,
2013-03-03 12:11:00,30.0,23.0,-100.00,NNW,348,4.0,9.0,76,0.00,,,0.04,149.000000,,2013-03-03 21:11:00,
2013-03-03 12:21:00,30.0,23.0,-100.00,NNW,348,4.0,9.0,76,0.00,,,0.04,149.000000,,2013-03-03 21:21:00,
2013-03-03 12:32:00,30.0,23.0,-100.00,NNW,348,4.0,9.0,76,0.00,,,0.04,149.000000,,2013-03-03 21:32:00,
2013-03-03 12:41:00,30.0,23.0,-100.00,NNW,348,4.0,9.0,76,0.00,,,0.04,149.000000,,2013-03-03 21:41:00,
2013-03-03 12:52:00,30.0,23.0,-100.00,NNW,348,4.0,9.0,76,0.00,,,0.04,149.000000,,2013-03-03 21:52:00,
2013-03-03 13:11:00,30.0,23.0,-100.00,NNW,342,4.0,9.0,76,0.00,,,0.03,106.000000,,2013-03-03 22:11:00,
2013-03-03 13:21:00,30.0,23.0,-100.00,NNW,342,4.0,9.0,76,0.00,,,0.03,106.000000,,2013-03-03 22:21:00,
2013-03-03 13:31:00,30.0,23.0,-100.00,NNW,342,4.0,9.0,76,0.00,,,0.03,106.000000,,2013-03-03 22:31:00,
2013-03-03 13:42:00,30.0,23.0,-100.00,NNW,342,4.0,9.0,76,0.00,,,0.03,106.000000,,2013-03-03 22:42:00,
2013-03-03 13:52:00,30.0,23.0,-100.00,NNW,342,4.0,9.0,76,0.00,,,0.03,106.000000,,2013-03-03 22:52:00,
2013-03-03 14:11:00,31.0,24.0,-100.00,NNW,341,3.0,10.0,76,0.00,,,0.02,102.000000,,2013-03-03 23:11:00,
2013-03-03 14:21:00,31.0,24.0,-100.00,NNW,341,3.0,10.0,76,0.00,,,0.02,102.000000,,2013-03-03 23:21:00,
2013-03-03 14:31:00,31.0,24.0,-100.00,NNW,341,3.0,10.0,76,0.00,,,0.02,102.000000,,2013-03-03 23:31:00,
2013-03-03 14:41:00,31.0,24.0,-100.00,NNW,341,3.0,10.0,76,0.00,,,0.02,102.000000,,2013-03-03 23:41:00,
2013-03-03 14:52:00,31.0,24.0,-100.00,NNW,341,3.0,10.0,76,0.00,,,0.02,102.000000,,2013-03-03 23:52:00,
2013-03-03 15:11:00,32.0,25.0,-100.00,NNW,333,3.0,9.0,75,0.00,,,0.01,78.000000,,2013-03-04 00:11:00,
2013-03-03 15:21:00,32.0,25.0,-100.00,NNW,333,3.0,9.0,75,0.00,,,0.01,78.000000,,2013-03-04 00:21:00,
2013-03-03 15:32:00,32.0,25.0,-100.00,NNW,333,3.0,9.0,75,0.00,,,0.01,78.000000,,2013-03-04 00:32:00,
2013-03-03 15:41:00,32.0,25.0,-100.00,NNW,333,3.0,9.0,75,0.00,,,0.01,78.000000,,2013-03-04 00:41:00,
2013-03-03 15:51:00,32.0,25.0,-100.00,NNW,333,3.0,9.0,75,0.00,,,0.01,78.000000,,2013-03-04 00:51:00,
2013-03-03 16:21:00,32.0,25.0,-100.00,NNW,342,3.0,7.0,74,0.00,,,0.00,57.000000,,2013-03-04 01:21:00,
2013-03-03 16:31:00,32.0,25.0,-100.00,NNW,342,3.0,7.0,74,0.00,,,0.00,57.000000,,2013-03-04 01:31:00,
2013-03-03 16:42:00,32.0,25.0,-100.00,NNW,342,3.0,7.0,74,0.00,,,0.00,57.000000,,2013-03-04 01:42:00,
2013-03-03 16:51:00,32.0,25.0,-100.00,NNW,342,3.0,7.0,74,0.00,,,0.00,57.000000,,2013-03-04 01:51:00,
2013-03-03 17:11:00,32.0,25.0,-100.00,NNW,334,3.0,7.0,75,0.00,,,0.00,45.000000,,2013-03-04 02:11:00,
2013-03-03 17:22:00,32.0,25.0,-100.00,NNW,334,3.0,7.0,75,0.00,,,0.00,45.000000,,2013-03-04 02:22:00,
2013-03-03 17:31:00,32.0,25.0,-100.00,NNW,334,3.0,7.0,75,0.00,,,0.00,45.000000,,2013-03-04 02:31:00,
2013-03-03 17:41:00,32.0,25.0,-100.00,NNW,334,3.0,7.0,75,0.00,,,0.00,45.000000,,2013-03-04 02:41:00,
2013-03-03 17:52:00,32.0,25.0,-100.00,NNW,334,3.0,7.0,75,0.00,,,0.00,45.000000,,2013-03-04 02:52:00,
2013-03-03 18:21:00,32.0,25.0,-100.00,NNW,332,3.0,6.0,75,0.00,,,0.00,26.000000,,2013-03-04 03:21:00,
2013-03-03 18:32:00,32.0,25.0,-100.00,NNW,332,3.0,6.0,75,0.00,,,0.00,26.000000,,2013-03-04 03:32:00,
2013-03-03 18:41:00,32.0,25.0,-100.00,NNW,332,3.0,6.0,75,0.00,,,0.00,26.000000,,2013-03-04 03:41:00,
2013-03-03 18:52:00,32.0,25.0,-100.00,NNW,332,3.0,6.0,75,0.00,,,0.00,26.000000,,2013-03-04 03:52:00,
2013-03-03 19:22:00,30.0,24.0,-100.00,NNW,348,3.0,7.0,79,0.00,,,0.00,5.000000,,2013-03-04 04:22:00,
2013-03-03 19:32:00,30.0,24.0,-100.00,NNW,348,3.0,7.0,79,0.00,,,0.00,5.000000,,2013-03-04 04:32:00,
2013-03-03 19:42:00,30.0,24.0,-100.00,NNW,348,3.0,7.0,79,0.00,,,0.00,5.000000,,2013-03-04 04:42:00,
2013-03-03 19:51:00,30.0,24.0,-100.00,NNW,348,3.0,7.0,79,0.00,,,0.00,5.000000,,2013-03-04 04:51:00,
2013-03-03 20:11:00,30.0,25.0,-100.00,NNW,343,3.0,8.0,81,0.00,,,0.00,0.000000,,2013-03-04 05:11:00,
2013-03-03 20:22:00,30.0,25.0,-100.00,NNW,343,3.0,8.0,81,0.00,,,0.00,0.000000,,2013-03-04 05:22:00,
2013-03-03 20:31:00,30.0,25.0,-100.00,NNW,343,3.0,8.0,81,0.00,,,0.00,0.000000,,2013-03-04 05:31:00,
2013-03-03 20:42:00,30.0,25.0,-100.00,NNW,343,3.0,8.0,81,0.00,,,0.00,0.000000,,2013-03-04 05:42:00,
2013-03-03 20:52:00,30.0,25.0,-100.00,NNW,343,3.0,8.0,81,0.00,,,0.00,0.000000,,2013-03-04 05:52:00,
2013-03-03 21:11:00,30.0,25.0,-100.00,NNW,339,3.0,7.0,82,0.00,,,0.00,0.000000,,2013-03-04 06:11:00,
2013-03-03 21:21:00,30.0,25.0,-100.00,NNW,339,3.0,7.0,82,0.00,,,0.00,0.000000,,2013-03-04 06:21:00,
2013-03-03 21:31:00,30.0,25.0,-100.00,NNW,339,3.0,7.0,82,0.00,,,0.00,0.000000,,2013-03-04 06:31:00,
2013-03-03 21:42:00,30.0,25.0,-100.00,NNW,339,3.0,7.0,82,0.00,,,0.00,0.000000,,2013-03-04 06:42:00,
2013-03-03 21:51:00,30.0,25.0,-100.00,NNW,339,3.0,7.0,82,0.00,,,0.00,0.000000,,2013-03-04 06:51:00,
2013-03-03 22:21:00,30.0,25.0,-100.00,NNW,345,2.0,7.0,82,0.00,,,0.00,0.000000,,2013-03-04 07:21:00,
2013-03-03 22:32:00,30.0,25.0,-100.00,NNW,345,2.0,7.0,82,0.00,,,0.00,0.000000,,2013-03-04 07:32:00,
2013-03-03 22:41:00,30.0,25.0,-100.00,NNW,345,2.0,7.0,82,0.00,,,0.00,0.000000,,2013-03-04 07:41:00,
2013-03-03 22:51:00,30.0,25.0,-100.00,NNW,345,2.0,7.0,82,0.00,,,0.00,0.000000,,2013-03-04 07:51:00,
2013-03-03 23:11:00,30.0,25.0,-100.00,NNW,340,3.0,9.0,82,0.00,,,0.00,0.000000,,2013-03-04 08:11:00,
2013-03-03 23:21:00,30.0,25.0,-100.00,NNW,340,3.0,9.0,82,0.00,,,0.00,0.000000,,2013-03-04 08:21:00,
2013-03-03 23:31:00,30.0,25.0,-100.00,NNW,340,3.0,9.0,82,0.00,,,0.00,0.000000,,2013-03-04 08:31:00,
2013-03-03 23:41:00,30.0,25.0,-100.00,NNW,340,3.0,9.0,82,0.00,,,0.00,0.000000,,2013-03-04 08:41:00,
2013-03-03 23:52:00,30.0,25.0,-100.00,NNW,340,3.0,9.0,82,0.00,,,0.00,0.000000,,2013-03-04 08:52:00,